createdAt,value
2023-01-13T00:02:51.649Z,9.34
2023-01-13T00:05:58.713Z,9.33
2023-01-13T00:09:03.600Z,9.29
2023-01-13T00:12:08.285Z,9.28
2023-01-13T00:15:13.441Z,9.19
2023-01-13T00:18:17.603Z,9.08
2023-01-13T00:21:23.852Z,8.97
2023-01-13T00:24:28.425Z,8.95
2023-01-13T00:27:33.791Z,8.97
2023-01-13T00:30:38.498Z,8.83
2023-01-13T00:33:43.372Z,8.80
2023-01-13T00:36:47.733Z,8.78
2023-01-13T00:39:52.695Z,8.63
2023-01-13T00:43:15.370Z,8.47
2023-01-13T00:46:21.808Z,8.35
2023-01-13T00:49:26.326Z,8.22
2023-01-13T00:52:33.577Z,8.13
2023-01-13T00:55:37.986Z,8.05
2023-01-13T00:58:46.007Z,8.04
2023-01-13T01:01:50.708Z,7.98
2023-01-13T01:04:54.839Z,7.98
2023-01-13T01:07:59.030Z,7.98
2023-01-13T01:11:10.580Z,7.95
2023-01-13T01:14:15.139Z,7.93
2023-01-13T01:17:19.583Z,7.89
2023-01-13T01:20:24.166Z,7.92
2023-01-13T01:23:30.137Z,7.96
2023-01-13T01:26:34.468Z,7.95
2023-01-13T01:29:38.610Z,7.96
2023-01-13T01:32:42.800Z,7.96
2023-01-13T01:35:47.947Z,7.99
2023-01-13T01:38:52.557Z,8.01
2023-01-13T01:42:15.734Z,8.05
2023-01-13T01:45:24.501Z,8.04
2023-01-13T01:48:35.065Z,8.01
2023-01-13T01:51:56.017Z,7.78
2023-01-13T01:55:10.635Z,7.54
2023-01-13T01:58:27.163Z,7.45
2023-01-13T02:01:34.223Z,7.47
2023-01-13T02:04:42.981Z,7.59
2023-01-13T02:07:51.519Z,7.68
2023-01-13T02:10:56.163Z,7.71
2023-01-13T02:14:00.437Z,7.70
2023-01-13T02:17:30.838Z,7.67
2023-01-13T02:21:16.614Z,7.67
2023-01-13T02:25:21.080Z,7.63
2023-01-13T02:29:06.695Z,7.67
2023-01-13T02:32:29.990Z,7.68
2023-01-13T02:35:49.462Z,7.67
2023-01-13T02:40:12.846Z,7.58
2023-01-13T02:43:57.485Z,7.54
2023-01-13T02:47:25.298Z,7.49
2023-01-13T02:50:39.445Z,7.42
2023-01-13T02:53:52.247Z,7.38
2023-01-13T02:57:00.760Z,7.35
2023-01-13T03:00:07.927Z,7.27
2023-01-13T03:03:12.464Z,7.29
2023-01-13T03:06:16.896Z,7.23
2023-01-13T03:09:33.083Z,7.20
2023-01-13T03:13:14.433Z,7.16
2023-01-13T03:16:43.440Z,7.11
2023-01-13T03:20:19.154Z,7.09
2023-01-13T03:23:33.252Z,7.07
2023-01-13T03:26:51.843Z,7.05
2023-01-13T03:30:24.381Z,7.02
2023-01-13T03:33:55.595Z,6.97
2023-01-13T03:37:05.788Z,6.95
2023-01-13T03:40:22.252Z,6.97
2023-01-13T03:43:59.823Z,6.96
2023-01-13T03:47:30.181Z,6.88
2023-01-13T03:50:47.534Z,6.89
2023-01-13T03:54:05.109Z,6.90
2023-01-13T03:57:13.908Z,6.91
2023-01-13T04:00:23.222Z,6.86
2023-01-13T04:03:42.311Z,6.87
2023-01-13T04:07:42.383Z,6.86
2023-01-13T04:11:11.959Z,6.80
2023-01-13T04:14:19.871Z,6.81
2023-01-13T04:17:24.695Z,6.85
2023-01-13T04:20:29.109Z,6.89
2023-01-13T04:23:34.002Z,6.87
2023-01-13T04:26:38.269Z,6.84
2023-01-13T04:29:42.684Z,6.83
2023-01-13T04:32:47.275Z,6.81
2023-01-13T04:35:52.755Z,6.73
2023-01-13T04:38:56.895Z,6.71
2023-01-13T04:42:02.495Z,6.66
2023-01-13T04:45:10.175Z,6.68
2023-01-13T04:48:14.601Z,6.68
2023-01-13T04:51:19.224Z,6.69
2023-01-13T04:54:23.662Z,6.67
2023-01-13T04:57:28.647Z,6.71
2023-01-13T05:00:33.414Z,6.73
2023-01-13T05:03:37.896Z,6.73
2023-01-13T05:06:42.597Z,6.72
2023-01-13T05:09:47.438Z,6.72
2023-01-13T05:13:10.556Z,6.70
2023-01-13T05:16:40.286Z,6.66
2023-01-13T05:20:22.850Z,6.65
2023-01-13T05:23:47.895Z,6.62
2023-01-13T05:26:55.450Z,6.64
2023-01-13T05:30:04.652Z,6.63
2023-01-13T05:33:18.181Z,6.66
2023-01-13T05:36:29.174Z,6.68
2023-01-13T05:39:52.591Z,6.62
2023-01-13T05:43:20.187Z,6.62
2023-01-13T05:46:24.796Z,6.64
2023-01-13T05:49:29.308Z,6.64
2023-01-13T05:52:33.845Z,6.64
2023-01-13T05:55:40.997Z,6.66
2023-01-13T05:58:46.065Z,6.66
2023-01-13T06:01:50.754Z,6.67
2023-01-13T06:04:56.342Z,6.64
2023-01-13T06:08:03.230Z,6.69
2023-01-13T06:11:08.006Z,6.71
2023-01-13T06:14:12.422Z,6.74
2023-01-13T06:17:17.084Z,6.74
2023-01-13T06:20:27.267Z,6.76
2023-01-13T06:23:35.038Z,6.78
2023-01-13T06:26:41.394Z,6.76
2023-01-13T06:29:45.839Z,6.80
2023-01-13T06:32:54.701Z,6.72
2023-01-13T06:36:06.021Z,6.78
2023-01-13T06:39:16.114Z,6.80
2023-01-13T06:42:41.865Z,6.78
2023-01-13T06:45:56.534Z,6.80
2023-01-13T06:49:26.920Z,6.85
2023-01-13T06:52:46.443Z,6.84
2023-01-13T06:56:22.658Z,6.86
2023-01-13T06:59:40.678Z,6.87
2023-01-13T07:03:14.137Z,6.90
2023-01-13T07:06:28.651Z,6.94
2023-01-13T14:00:11.407Z,6.75
2023-01-13T14:07:26.542Z,6.52
2023-01-13T14:10:40.226Z,6.55
2023-01-13T14:13:47.391Z,6.57
2023-01-13T14:16:56.116Z,6.48
2023-01-13T14:20:05.861Z,6.43
2023-01-13T14:23:40.093Z,6.44
2023-01-13T14:27:24.718Z,6.45
2023-01-13T14:30:35.667Z,6.48
2023-01-13T14:34:32.126Z,6.59
2023-01-13T14:37:56.627Z,6.69
2023-01-13T14:41:41.555Z,6.72
2023-01-13T14:45:02.673Z,6.81
2023-01-13T14:48:27.112Z,6.82
2023-01-13T14:51:50.474Z,6.79
2023-01-13T14:55:36.699Z,6.83
2023-01-13T14:59:44.633Z,6.83
2023-01-13T15:03:53.128Z,6.82
2023-01-13T15:12:18.285Z,6.80
2023-01-13T15:15:37.613Z,6.80
2023-01-13T15:26:44.846Z,6.82
2023-01-13T16:17:15.139Z,6.57
2023-01-13T16:20:36.711Z,6.56
2023-01-13T16:24:00.882Z,6.60
2023-01-13T16:28:11.781Z,6.58
2023-01-13T16:37:17.667Z,6.60
2023-01-13T16:57:28.681Z,6.77
2023-01-13T17:01:25.870Z,6.70
2023-01-13T17:04:39.153Z,6.58
2023-01-13T17:11:48.131Z,6.45
2023-01-13T17:24:58.831Z,6.35
2023-01-13T17:32:56.684Z,6.34
2023-01-13T17:40:41.120Z,6.36
2023-01-13T17:44:11.545Z,6.30
2023-01-13T17:48:20.892Z,6.32
2023-01-13T17:59:41.315Z,6.28
2023-01-13T18:03:01.749Z,6.28
2023-01-13T18:06:29.323Z,6.31
2023-01-13T18:13:45.913Z,6.31
2023-01-13T18:17:21.030Z,6.27
2023-01-13T18:20:53.904Z,6.28
2023-01-13T18:24:19.021Z,6.26
2023-01-13T18:27:38.872Z,6.24
2023-01-13T18:31:12.834Z,6.25
2023-01-13T18:34:23.398Z,6.26
2023-01-13T18:37:59.176Z,6.29
2023-01-13T18:41:31.739Z,6.31
2023-01-13T18:44:50.763Z,6.35
2023-01-13T18:48:22.837Z,6.37
2023-01-13T18:51:32.995Z,6.40
2023-01-13T18:54:40.745Z,6.42
2023-01-13T18:58:04.643Z,6.39
2023-01-13T19:06:20.721Z,6.43
2023-01-13T19:14:49.357Z,6.45
2023-01-13T19:18:31.010Z,6.46
2023-01-13T19:26:40.250Z,6.49
2023-01-13T19:30:03.609Z,6.55
2023-01-13T19:33:14.459Z,6.57
2023-01-13T19:36:29.767Z,6.63
2023-01-13T19:39:38.425Z,6.72
2023-01-13T19:43:17.130Z,6.66
2023-01-13T19:46:31.342Z,6.76
2023-01-13T19:49:41.897Z,6.72
2023-01-13T19:52:49.371Z,6.76
2023-01-13T19:55:57.669Z,6.75
2023-01-13T19:59:19.541Z,6.78
2023-01-13T20:02:31.979Z,6.82
2023-01-13T20:05:46.281Z,6.75
2023-01-13T20:09:02.109Z,6.74
2023-01-13T20:16:27.304Z,6.77
2023-01-13T20:20:19.551Z,6.85
2023-01-13T20:24:05.606Z,6.90
2023-01-13T20:27:55.675Z,6.85
2023-01-13T20:31:22.840Z,6.83
2023-01-13T20:40:05.483Z,6.85
2023-01-13T20:59:32.792Z,6.76
2023-01-13T21:03:01.772Z,6.75
2023-01-13T21:06:47.564Z,6.73
2023-01-13T21:10:28.477Z,6.63
2023-01-13T21:14:02.456Z,6.68
2023-01-13T21:18:04.853Z,6.68
2023-01-13T21:21:35.272Z,6.68
2023-01-13T21:24:50.346Z,6.66
2023-01-13T21:28:21.968Z,6.59
2023-01-13T21:31:48.868Z,6.61
2023-01-13T21:38:47.640Z,6.68
2023-01-13T21:42:50.229Z,6.70
2023-01-13T21:46:33.140Z,6.68
2023-01-13T21:54:38.016Z,6.56
2023-01-13T21:58:35.785Z,6.54
2023-01-13T22:02:23.240Z,6.53
2023-01-13T22:05:38.224Z,6.48
2023-01-13T22:09:12.821Z,6.45
2023-01-13T22:13:26.964Z,6.46
2023-01-13T22:20:45.918Z,6.59
2023-01-13T22:23:59.390Z,6.58
2023-01-13T22:27:26.094Z,6.67
2023-01-13T22:30:37.944Z,6.65
2023-01-13T22:38:48.687Z,6.69
2023-01-13T22:42:33.044Z,6.70
2023-01-13T22:58:43.347Z,6.84
2023-01-13T23:02:36.486Z,6.83
